Chinggis Khaan International Airport
ZMUB : now visible

Airfield :











YOU CAN JOIN US ON...

 
LOGIN :

Register | Disclaimer

   EN    FR    IT 

 









Legend :    VFR   Marginal VFR   IFR   Intensive IFR   Very Intensive IFR
Visi :
Ceiling :
>= 8 km
>= 3000ft
5 to 8 km
1000 to 3000 ft
1500m to 5 km
500 to 1000 ft
800 to 1500m
200 to 500 ft
< 800m
< 200 ft
Symbols :   Thunderstorms  Fog  Heavy snow  Heavy precipitations  Wind > 20 kt







- Airport Elevation : 4364 ft
- IATA code : ULN


ZMUB - Chinggis Khaan International

CURRENT METAR :
  • 221230Z 36003MPS 320V030 9999 SCT033 07/M07 Q1010 NOSIG RMK QFE651.1 38 NT

EXPIRED METARs :
  • 221200Z 35005MPS 9999 SCT033 07/M07 Q1010 NOSIG RMK QFE650.8 37 MOP
  • 221130Z 36004MPS 9999 FEW033 08/M07 Q1009 NOSIG RMK QFE650.6 35 MOP
  • 221100Z 35004MPS 310V020 9999 FEW033 09/M08 Q1009 NOSIG RMK QFE650.4 31 MOP
  • 221030Z 36005MPS 330V030 9999 FEW033 09/M08 Q1009 NOSIG RMK QFE650.2 30 MOP
  • 221000Z 36007MPS 9999 FEW033 09/M07 Q1008 NOSIG RMK QFE649.7 30 MOP

TAF TAF ZMUB
Valid from the 22 at 12:00 until the 23 at 18:00 UTC


221040Z 2212/2318 VRB02MPS 9999 SCT033 SCT100 TNM04/2223Z TX08/2307Z
BECMG 2302/2304 35007MPS
BECMG 2311/2313 VRB02MPS
ZMUB FIR / Asia



MET'MAP, your aeronautical weather chart ! - Copyright ORBIFLY December 2007 - Disclaimer

ORBIFLY MET'MAP TEAM :

Programming & Development : Alexandra Zaïnal
Concept & Development : Baudouin d'Aumeries
Co-Development & Prog : Marc-Olivier Méhu
Technical & hardware support : Manuel Goepfert

Contact : metmap@orbifly.com




SOURCES & CREDITS :

   NOAA       Earth
Advisory